createdAt,value
2018-08-24T00:00:15.383Z,98433.00
2018-08-24T00:02:19.366Z,98439.00
2018-08-24T00:04:22.928Z,98440.00
2018-08-24T00:06:26.552Z,98441.00
2018-08-24T00:08:30.524Z,98438.00
2018-08-24T00:10:34.025Z,98436.00
2018-08-24T00:12:37.664Z,98435.00
2018-08-24T00:14:42.474Z,98432.00
2018-08-24T00:16:50.606Z,98428.00
2018-08-24T00:18:55.925Z,98425.00
2018-08-24T00:21:02.181Z,98412.00
2018-08-24T00:23:05.692Z,98403.00
2018-08-24T00:25:09.244Z,98400.00
2018-08-24T00:27:13.104Z,98394.00
2018-08-24T00:29:16.592Z,98390.00
2018-08-24T00:31:20.163Z,98390.00
2018-08-24T00:33:24.114Z,98391.00
2018-08-24T00:35:27.889Z,98401.00
2018-08-24T00:37:31.843Z,98412.00
2018-08-24T00:39:43.893Z,98414.00
2018-08-24T00:41:48.414Z,98419.00
2018-08-24T00:43:55.824Z,98420.00
2018-08-24T00:46:03.258Z,98420.00
2018-08-24T00:48:10.818Z,98421.00
2018-08-24T00:50:14.319Z,98418.00
2018-08-24T00:52:18.191Z,98413.00
2018-08-24T00:54:21.884Z,98415.00
2018-08-24T00:56:25.339Z,98411.00
2018-08-24T00:58:29.536Z,98413.00
2018-08-24T01:00:38.372Z,98416.00
2018-08-24T01:02:42.051Z,98424.00
2018-08-24T01:04:45.907Z,98426.00
2018-08-24T01:06:50.013Z,98419.00
2018-08-24T01:08:57.868Z,98424.00
2018-08-24T01:11:02.966Z,98427.00
2018-08-24T01:13:16.273Z,98429.00
2018-08-24T01:15:19.866Z,98435.00
2018-08-24T01:17:29.208Z,98428.00
2018-08-24T01:19:32.951Z,98430.00
2018-08-24T01:21:36.814Z,98432.00
2018-08-24T01:23:40.952Z,98434.00
2018-08-24T01:25:44.771Z,98435.00
2018-08-24T01:27:48.411Z,98430.00
2018-08-24T01:29:52.208Z,98431.00
2018-08-24T01:31:55.963Z,98430.00
2018-08-24T01:34:02.835Z,98425.00
2018-08-24T01:36:10.946Z,98429.00
2018-08-24T01:38:18.111Z,98431.00
2018-08-24T01:40:21.850Z,98429.00
2018-08-24T01:42:26.187Z,98436.00
2018-08-24T01:44:30.119Z,98442.00
2018-08-24T01:46:33.679Z,98435.00
2018-08-24T01:48:38.360Z,98434.00
2018-08-24T01:50:42.889Z,98429.00
2018-08-24T01:52:46.801Z,98435.00
2018-08-24T01:54:50.670Z,98442.00
2018-08-24T01:56:54.466Z,98434.00
2018-08-24T01:59:00.899Z,98433.00
2018-08-24T02:01:09.776Z,98427.00
2018-08-24T02:03:19.739Z,98438.00
2018-08-24T02:05:23.316Z,98441.00
2018-08-24T02:07:27.430Z,98439.00
2018-08-24T02:09:40.283Z,98439.00
2018-08-24T02:11:46.842Z,98436.00
2018-08-24T02:13:57.605Z,98445.00
2018-08-24T02:16:01.046Z,98450.00
2018-08-24T02:18:09.851Z,98452.00
2018-08-24T02:20:19.172Z,98453.00
2018-08-24T02:22:22.809Z,98454.00
2018-08-24T02:24:26.545Z,98454.00
2018-08-24T02:26:32.889Z,98460.00
2018-08-24T02:28:40.532Z,98463.00
2018-08-24T02:30:46.896Z,98465.00
2018-08-24T02:32:53.714Z,98459.00
2018-08-24T02:34:59.639Z,98457.00
2018-08-24T02:37:03.448Z,98459.00
2018-08-24T02:39:11.556Z,98453.00
2018-08-24T02:41:15.222Z,98459.00
2018-08-24T02:43:18.764Z,98451.00
2018-08-24T02:45:23.002Z,98447.00
2018-08-24T02:47:26.544Z,98436.00
2018-08-24T02:49:30.339Z,98436.00
2018-08-24T02:51:34.303Z,98435.00
2018-08-24T02:53:39.335Z,98439.00
2018-08-24T02:55:46.859Z,98439.00
2018-08-24T02:57:54.830Z,98442.00
2018-08-24T02:59:59.929Z,98441.00
2018-08-24T03:02:03.762Z,98445.00
2018-08-24T03:04:07.632Z,98455.00
2018-08-24T03:06:11.417Z,98475.00
2018-08-24T03:08:16.733Z,98459.00
2018-08-24T03:10:20.564Z,98454.00
2018-08-24T03:12:24.705Z,98453.00
2018-08-24T03:14:28.171Z,98460.00
2018-08-24T03:16:33.058Z,98453.00
2018-08-24T03:18:36.576Z,98455.00
2018-08-24T03:20:40.465Z,98448.00
2018-08-24T03:22:47.552Z,98466.00
2018-08-24T03:24:53.818Z,98452.00
2018-08-24T03:26:59.867Z,98441.00
2018-08-24T03:29:03.855Z,98434.00
2018-08-24T03:31:07.524Z,98436.00
2018-08-24T03:33:11.571Z,98442.00
2018-08-24T03:35:15.419Z,98437.00
2018-08-24T03:37:18.857Z,98438.00
2018-08-24T03:39:22.895Z,98440.00
2018-08-24T03:41:26.843Z,98442.00
2018-08-24T03:43:30.434Z,98441.00
2018-08-24T03:45:33.872Z,98435.00
2018-08-24T03:47:37.919Z,98435.00
2018-08-24T03:49:41.439Z,98430.00
2018-08-24T03:52:48.041Z,98439.00
2018-08-24T03:54:54.473Z,98438.00
2018-08-24T03:56:59.899Z,98443.00
2018-08-24T03:59:05.688Z,98444.00
2018-08-24T04:01:10.704Z,98447.00
2018-08-24T04:03:14.185Z,98460.00
2018-08-24T04:05:17.663Z,98455.00
2018-08-24T04:07:21.676Z,98449.00
2018-08-24T04:09:25.236Z,98447.00
2018-08-24T04:11:33.612Z,98461.00
2018-08-24T04:13:37.418Z,98454.00
2018-08-24T04:15:41.059Z,98452.00
2018-08-24T04:17:45.395Z,98458.00
2018-08-24T04:19:49.358Z,98457.00
2018-08-24T04:21:54.670Z,98466.00
2018-08-24T04:24:02.267Z,98468.00
2018-08-24T04:26:10.872Z,98470.00
2018-08-24T04:28:14.469Z,98467.00
2018-08-24T04:30:17.947Z,98473.00
2018-08-24T04:32:21.774Z,98466.00
2018-08-24T04:34:26.511Z,98459.00
2018-08-24T04:36:34.146Z,98454.00
2018-08-24T04:38:38.517Z,98455.00
2018-08-24T04:40:42.467Z,98450.00
2018-08-24T04:42:47.759Z,98452.00
2018-08-24T04:44:52.869Z,98451.00
2018-08-24T04:46:59.166Z,98456.00
2018-08-24T04:49:11.927Z,98460.00
2018-08-24T04:51:18.119Z,98466.00
2018-08-24T04:53:22.308Z,98456.00
2018-08-24T04:55:27.762Z,98454.00
2018-08-24T04:57:31.858Z,98456.00
2018-08-24T05:02:18.857Z,98460.00
2018-08-24T05:04:28.985Z,98466.00
2018-08-24T05:06:32.847Z,98475.00
2018-08-24T05:08:36.419Z,98478.00
2018-08-24T05:10:47.165Z,98483.00
2018-08-24T05:13:19.647Z,98474.00
2018-08-24T05:15:25.494Z,98476.00
2018-08-24T05:17:29.626Z,98473.00
2018-08-24T05:19:35.263Z,98475.00
2018-08-24T05:21:54.443Z,98469.00
2018-08-24T05:23:58.688Z,98476.00
2018-08-24T05:26:06.520Z,98474.00
2018-08-24T05:28:12.705Z,98471.00
2018-08-24T05:30:16.628Z,98475.00
2018-08-24T05:32:22.794Z,98482.00
2018-08-24T05:34:26.369Z,98482.00
2018-08-24T05:36:31.447Z,98483.00
2018-08-24T05:38:35.662Z,98488.00
2018-08-24T05:40:45.998Z,98491.00
2018-08-24T05:42:54.843Z,98498.00
2018-08-24T05:44:59.993Z,98502.00
2018-08-24T05:47:06.364Z,98503.00
2018-08-24T05:49:10.481Z,98498.00
2018-08-24T05:51:17.867Z,98500.00
2018-08-24T05:53:25.451Z,98499.00
2018-08-24T05:55:29.426Z,98498.00
2018-08-24T05:57:34.689Z,98501.00
2018-08-24T05:59:42.624Z,98499.00
2018-08-24T06:01:52.282Z,98491.00
2018-08-24T06:04:00.276Z,98496.00
2018-08-24T06:06:04.698Z,98501.00
2018-08-24T06:08:18.399Z,98495.00
2018-08-24T06:10:30.861Z,98505.00
2018-08-24T06:12:37.540Z,98507.00
2018-08-24T06:14:44.691Z,98513.00
2018-08-24T06:16:58.007Z,98511.00
2018-08-24T06:19:04.043Z,98513.00
2018-08-24T06:21:14.110Z,98517.00
2018-08-24T06:23:20.985Z,98511.00
2018-08-24T06:25:26.394Z,98508.00
2018-08-24T06:27:33.858Z,98504.00
2018-08-24T06:29:39.125Z,98510.00
2018-08-24T06:31:52.325Z,98514.00
2018-08-24T06:33:59.856Z,98506.00
2018-08-24T06:36:10.533Z,98520.00
2018-08-24T06:38:20.757Z,98520.00
2018-08-24T06:40:25.483Z,98517.00
2018-08-24T06:42:35.458Z,98511.00
2018-08-24T06:44:45.570Z,98513.00
2018-08-24T06:46:55.766Z,98518.00
2018-08-24T06:49:07.837Z,98516.00
2018-08-24T06:51:12.032Z,98520.00
2018-08-24T06:53:17.425Z,98542.00
2018-08-24T06:55:21.010Z,98536.00
2018-08-24T06:57:25.828Z,98526.00
2018-08-24T06:59:38.322Z,98532.00
2018-08-24T07:01:44.904Z,98537.00
2018-08-24T07:03:49.207Z,98534.00
2018-08-24T07:05:58.734Z,98539.00
2018-08-24T07:08:05.023Z,98536.00
2018-08-24T07:10:10.947Z,98536.00
2018-08-24T07:12:15.163Z,98537.00
2018-08-24T07:14:22.529Z,98549.00
2018-08-24T07:16:26.925Z,98536.00
2018-08-24T07:18:38.136Z,98542.00
2018-08-24T07:20:46.022Z,98531.00
2018-08-24T07:22:50.078Z,98550.00
2018-08-24T07:25:02.106Z,98543.00
2018-08-24T07:27:14.212Z,98539.00
2018-08-24T07:29:18.486Z,98552.00
2018-08-24T07:31:25.397Z,98547.00
2018-08-24T07:33:29.184Z,98558.00
2018-08-24T07:35:38.550Z,98565.00
2018-08-24T07:37:43.767Z,98549.00
2018-08-24T07:39:48.136Z,98558.00
2018-08-24T07:41:53.148Z,98575.00
2018-08-24T07:44:02.818Z,98554.00
2018-08-24T07:46:08.356Z,98563.00
2018-08-24T07:48:18.303Z,98556.00
2018-08-24T07:50:23.160Z,98549.00
2018-08-24T07:52:29.264Z,98560.00
2018-08-24T07:54:36.510Z,98560.00
2018-08-24T07:56:43.497Z,98575.00
2018-08-24T07:58:49.331Z,98577.00
2018-08-24T08:00:55.995Z,98559.00
2018-08-24T08:03:03.719Z,98579.00
2018-08-24T08:05:16.039Z,98578.00
2018-08-24T08:07:21.486Z,98576.00
2018-08-24T08:09:26.201Z,98577.00
2018-08-24T08:11:47.332Z,98591.00
2018-08-24T08:13:51.930Z,98579.00
2018-08-24T08:15:58.638Z,98589.00
2018-08-24T08:18:09.210Z,98572.00
2018-08-24T08:20:14.866Z,98573.00
2018-08-24T08:22:31.562Z,98587.00
2018-08-24T08:24:35.642Z,98568.00
2018-08-24T08:26:41.839Z,98572.00
2018-08-24T08:28:47.848Z,98563.00
2018-08-24T08:30:54.815Z,98560.00
2018-08-24T08:32:58.689Z,98588.00
2018-08-24T08:35:02.895Z,98570.00
2018-08-24T08:37:07.321Z,98589.00
2018-08-24T08:39:15.738Z,98608.00
2018-08-24T08:41:20.421Z,98570.00
2018-08-24T08:43:24.616Z,98580.00
2018-08-24T08:45:28.239Z,98576.00
2018-08-24T08:47:32.698Z,98574.00
2018-08-24T08:49:43.685Z,98577.00
2018-08-24T08:51:50.859Z,98566.00
2018-08-24T08:53:58.943Z,98581.00
2018-08-24T08:56:03.874Z,98606.00
2018-08-24T08:58:07.849Z,98610.00
2018-08-24T09:00:12.488Z,98598.00
2018-08-24T09:02:25.359Z,98593.00
2018-08-24T09:04:29.208Z,98609.00
2018-08-24T09:06:37.617Z,98609.00
2018-08-24T09:08:42.545Z,98597.00
2018-08-24T09:10:51.988Z,98611.00
2018-08-24T09:13:01.019Z,98584.00
2018-08-24T09:15:07.470Z,98576.00
2018-08-24T09:17:31.997Z,98582.00
2018-08-24T09:19:40.949Z,98584.00
2018-08-24T09:21:55.892Z,98594.00
2018-08-24T09:24:07.617Z,98594.00
2018-08-24T09:26:17.012Z,98580.00
2018-08-24T09:28:35.788Z,98607.00
2018-08-24T09:30:52.729Z,98600.00
2018-08-24T09:32:58.487Z,98621.00
2018-08-24T09:35:02.372Z,98628.00
2018-08-24T09:37:13.976Z,98607.00
2018-08-24T09:39:22.556Z,98607.00
2018-08-24T09:41:31.156Z,98570.00
2018-08-24T09:43:40.917Z,98589.00
2018-08-24T09:45:44.904Z,98584.00
2018-08-24T09:47:55.023Z,98585.00
2018-08-24T09:50:05.437Z,98578.00
2018-08-24T09:52:15.399Z,98572.00
2018-08-24T09:54:27.453Z,98585.00
2018-08-24T09:56:36.065Z,98585.00
2018-08-24T09:58:40.250Z,98575.00
2018-08-24T10:00:51.141Z,98589.00
2018-08-24T10:07:16.552Z,98589.00
2018-08-24T10:09:21.410Z,98586.00
2018-08-24T10:11:25.654Z,98578.00
2018-08-24T10:13:30.840Z,98577.00
2018-08-24T10:15:34.762Z,98579.00
2018-08-24T10:17:41.473Z,98582.00
2018-08-24T10:19:45.142Z,98572.00
2018-08-24T10:21:48.977Z,98611.00
2018-08-24T10:23:53.150Z,98614.00
2018-08-24T10:26:00.506Z,98598.00
2018-08-24T10:28:06.409Z,98597.00
2018-08-24T10:30:16.538Z,98577.00
2018-08-24T10:32:20.206Z,98632.00
2018-08-24T10:34:23.885Z,98605.00
2018-08-24T10:36:27.764Z,98636.00
2018-08-24T10:38:31.214Z,98614.00
2018-08-24T10:40:34.711Z,98616.00
2018-08-24T10:42:38.676Z,98640.00
2018-08-24T10:44:42.180Z,98662.00
2018-08-24T10:46:45.624Z,98648.00
2018-08-24T10:48:49.628Z,98650.00
2018-08-24T10:50:53.357Z,98635.00
2018-08-24T10:52:57.511Z,98648.00
2018-08-24T10:55:04.337Z,98636.00
2018-08-24T10:57:10.785Z,98671.00
2018-08-24T10:59:17.820Z,98628.00
2018-08-24T11:01:22.560Z,98652.00
2018-08-24T11:03:26.428Z,98636.00
2018-08-24T11:05:32.414Z,98664.00
2018-08-24T11:07:36.971Z,98690.00
2018-08-24T11:09:41.486Z,98675.00
2018-08-24T11:11:45.257Z,98640.00
2018-08-24T11:13:49.561Z,98660.00
2018-08-24T11:15:53.457Z,98666.00
2018-08-24T11:18:02.764Z,98681.00
2018-08-24T11:20:11.814Z,98694.00
2018-08-24T11:22:18.775Z,98676.00
2018-08-24T11:24:24.639Z,98678.00
2018-08-24T11:26:28.668Z,98651.00
2018-08-24T11:28:32.527Z,98655.00
2018-08-24T11:30:36.383Z,98673.00
2018-08-24T11:32:44.247Z,98707.00
2018-08-24T11:34:49.357Z,98723.00
2018-08-24T11:36:57.093Z,98703.00
2018-08-24T11:39:01.207Z,98695.00
2018-08-24T11:41:05.410Z,98684.00
2018-08-24T11:43:09.871Z,98713.00
2018-08-24T11:45:13.795Z,98711.00
2018-08-24T11:47:20.331Z,98728.00
2018-08-24T11:49:25.070Z,98699.00
2018-08-24T11:51:29.452Z,98705.00
2018-08-24T11:53:33.625Z,98704.00
2018-08-24T11:55:37.399Z,98715.00
2018-08-24T11:57:45.579Z,98713.00
2018-08-24T11:59:56.517Z,98714.00
2018-08-24T12:02:01.589Z,98732.00
2018-08-24T12:04:06.038Z,98715.00
2018-08-24T12:06:09.935Z,98725.00
2018-08-24T12:08:16.666Z,98699.00
2018-08-24T12:10:22.424Z,98704.00
2018-08-24T12:12:25.981Z,98718.00
2018-08-24T12:14:29.556Z,98741.00
2018-08-24T12:16:33.530Z,98726.00
2018-08-24T12:18:37.393Z,98719.00
2018-08-24T12:20:41.143Z,98730.00
2018-08-24T12:22:48.094Z,98725.00
2018-08-24T12:24:54.489Z,98706.00
2018-08-24T12:27:00.701Z,98696.00
2018-08-24T12:29:05.378Z,98724.00
2018-08-24T12:31:09.635Z,98741.00
2018-08-24T12:33:13.356Z,98710.00
2018-08-24T12:35:17.467Z,98706.00
2018-08-24T12:37:21.423Z,98709.00
2018-08-24T12:39:24.962Z,98702.00
2018-08-24T12:41:29.514Z,98690.00
2018-08-24T12:43:33.482Z,98713.00
2018-08-24T12:45:37.056Z,98707.00
2018-08-24T12:47:41.109Z,98713.00
2018-08-24T12:49:44.627Z,98699.00
2018-08-24T12:51:50.252Z,98704.00
2018-08-24T12:53:58.006Z,98707.00
2018-08-24T12:56:10.091Z,98710.00
2018-08-24T12:58:13.904Z,98691.00
2018-08-24T13:00:17.880Z,98693.00
2018-08-24T13:02:21.982Z,98676.00
2018-08-24T13:04:26.115Z,98686.00
2018-08-24T13:06:29.710Z,98691.00
2018-08-24T13:08:33.655Z,98700.00
2018-08-24T13:10:37.646Z,98707.00
2018-08-24T13:12:42.073Z,98681.00
2018-08-24T13:14:46.224Z,98702.00
2018-08-24T13:16:49.936Z,98676.00
2018-08-24T13:18:55.478Z,98684.00
2018-08-24T13:21:03.368Z,98677.00
2018-08-24T13:23:11.019Z,98672.00
2018-08-24T13:25:15.245Z,98660.00
2018-08-24T13:27:19.358Z,98656.00
2018-08-24T13:29:27.063Z,98667.00
2018-08-24T13:33:42.975Z,98654.00
2018-08-24T13:35:48.426Z,98636.00
2018-08-24T13:37:52.904Z,98636.00
2018-08-24T13:39:56.856Z,98654.00
2018-08-24T13:42:03.402Z,98630.00
2018-08-24T13:44:10.068Z,98624.00
2018-08-24T13:46:21.475Z,98620.00
2018-08-24T13:48:26.906Z,98623.00
2018-08-24T13:50:31.902Z,98623.00
2018-08-24T13:52:38.764Z,98612.00
2018-08-24T13:54:44.659Z,98609.00
2018-08-24T13:56:49.590Z,98624.00
2018-08-24T13:58:53.908Z,98604.00
2018-08-24T14:00:58.706Z,98602.00
2018-08-24T14:03:07.618Z,98607.00
2018-08-24T14:05:13.898Z,98627.00
2018-08-24T14:07:20.940Z,98607.00
2018-08-24T14:09:25.337Z,98597.00
2018-08-24T14:11:29.217Z,98608.00
2018-08-24T14:13:33.063Z,98590.00
2018-08-24T14:15:37.676Z,98592.00
2018-08-24T14:17:41.588Z,98584.00
2018-08-24T14:19:45.271Z,98613.00
2018-08-24T14:21:49.098Z,98605.00
2018-08-24T14:23:52.968Z,98598.00
2018-08-24T14:25:56.926Z,98594.00
2018-08-24T14:28:02.269Z,98599.00
2018-08-24T14:30:11.430Z,98597.00
2018-08-24T14:32:19.335Z,98594.00
2018-08-24T14:34:28.245Z,98585.00
2018-08-24T14:36:34.071Z,98590.00
2018-08-24T14:38:40.405Z,98604.00
2018-08-24T14:40:47.769Z,98595.00
2018-08-24T14:42:55.423Z,98578.00
2018-08-24T14:45:01.662Z,98573.00
2018-08-24T14:47:06.666Z,98574.00
2018-08-24T14:49:10.891Z,98585.00
2018-08-24T14:51:15.181Z,98571.00
2018-08-24T14:53:19.492Z,98571.00
2018-08-24T14:55:24.034Z,98562.00
2018-08-24T14:57:27.703Z,98564.00
2018-08-24T14:59:33.105Z,98572.00
2018-08-24T15:01:37.881Z,98575.00
2018-08-24T15:03:43.442Z,98569.00
2018-08-24T15:05:51.595Z,98565.00
2018-08-24T15:07:57.085Z,98564.00
2018-08-24T15:10:06.130Z,98557.00
2018-08-24T15:12:10.337Z,98572.00
2018-08-24T15:14:14.574Z,98561.00
2018-08-24T15:16:18.387Z,98564.00
2018-08-24T15:18:22.518Z,98562.00
2018-08-24T15:20:26.353Z,98567.00
2018-08-24T15:22:32.501Z,98561.00
2018-08-24T15:24:36.868Z,98564.00
2018-08-24T15:26:40.657Z,98579.00
2018-08-24T15:28:45.789Z,98602.00
2018-08-24T15:30:53.930Z,98648.00
2018-08-24T15:33:00.320Z,98624.00
2018-08-24T15:35:19.050Z,98644.00
2018-08-24T15:37:23.380Z,98665.00
2018-08-24T15:39:27.178Z,98642.00
2018-08-24T15:41:30.735Z,98639.00
2018-08-24T15:43:34.821Z,98657.00
2018-08-24T15:45:38.516Z,98647.00
2018-08-24T15:47:42.016Z,98645.00
2018-08-24T15:49:46.079Z,98645.00
2018-08-24T15:51:49.848Z,98643.00
2018-08-24T15:53:57.303Z,98639.00
2018-08-24T15:56:03.289Z,98633.00
2018-08-24T15:58:08.509Z,98640.00
2018-08-24T16:00:12.099Z,98635.00
2018-08-24T16:02:15.635Z,98635.00
2018-08-24T16:04:19.467Z,98635.00
2018-08-24T16:06:23.010Z,98631.00
2018-08-24T16:08:27.158Z,98635.00
2018-08-24T16:10:30.707Z,98640.00
2018-08-24T16:12:34.624Z,98633.00
2018-08-24T16:14:38.860Z,98635.00
2018-08-24T16:16:42.603Z,98630.00
2018-08-24T16:18:50.569Z,98629.00
2018-08-24T16:20:56.815Z,98625.00
2018-08-24T16:23:03.818Z,98620.00
2018-08-24T16:25:13.351Z,98620.00
2018-08-24T16:27:22.394Z,98630.00
2018-08-24T16:29:26.038Z,98633.00
2018-08-24T16:31:29.609Z,98639.00
2018-08-24T16:33:34.374Z,98630.00
2018-08-24T16:35:38.133Z,98627.00
2018-08-24T16:37:41.609Z,98628.00
2018-08-24T16:39:45.452Z,98634.00
2018-08-24T16:41:48.953Z,98633.00
2018-08-24T16:43:53.129Z,98635.00
2018-08-24T16:45:57.461Z,98635.00
2018-08-24T16:48:04.904Z,98633.00
2018-08-24T16:50:09.772Z,98631.00
2018-08-24T16:52:19.555Z,98623.00
2018-08-24T16:54:23.190Z,98630.00
2018-08-24T16:56:26.833Z,98633.00
2018-08-24T16:58:32.131Z,98633.00
2018-08-24T17:00:35.858Z,98634.00
2018-08-24T17:02:40.033Z,98636.00
2018-08-24T17:04:44.289Z,98631.00
2018-08-24T17:06:48.232Z,98635.00
2018-08-24T17:08:52.159Z,98634.00
2018-08-24T17:10:56.714Z,98633.00
2018-08-24T17:13:02.656Z,98631.00
2018-08-24T17:15:07.259Z,98625.00
2018-08-24T17:17:15.855Z,98623.00
2018-08-24T17:19:23.457Z,98632.00
2018-08-24T17:21:30.376Z,98628.00
2018-08-24T17:23:36.222Z,98637.00
2018-08-24T17:25:40.264Z,98631.00
2018-08-24T17:27:45.354Z,98636.00
2018-08-24T17:29:50.263Z,98631.00
2018-08-24T17:31:54.426Z,98629.00
2018-08-24T17:33:59.026Z,98625.00
2018-08-24T17:36:03.696Z,98625.00
2018-08-24T17:38:08.151Z,98625.00
2018-08-24T17:40:16.411Z,98631.00
2018-08-24T17:42:20.436Z,98630.00
2018-08-24T17:44:27.395Z,98630.00
2018-08-24T17:46:30.960Z,98636.00
2018-08-24T17:48:35.254Z,98639.00
2018-08-24T17:50:39.074Z,98638.00
2018-08-24T17:52:47.557Z,98642.00
2018-08-24T17:54:54.494Z,98641.00
2018-08-24T17:57:01.581Z,98646.00
2018-08-24T17:59:05.341Z,98657.00
2018-08-24T18:01:09.529Z,98652.00
2018-08-24T18:03:13.362Z,98652.00
2018-08-24T18:05:21.358Z,98649.00
2018-08-24T18:07:25.790Z,98652.00
2018-08-24T18:09:29.403Z,98651.00
2018-08-24T18:11:33.675Z,98655.00
2018-08-24T18:13:39.145Z,98656.00
2018-08-24T18:15:43.553Z,98651.00
2018-08-24T18:17:47.315Z,98655.00
2018-08-24T18:19:51.208Z,98653.00
2018-08-24T18:21:55.228Z,98653.00
2018-08-24T18:24:03.352Z,98657.00
2018-08-24T18:26:12.767Z,98657.00
2018-08-24T18:28:16.724Z,98658.00
2018-08-24T18:30:20.371Z,98665.00
2018-08-24T18:32:24.269Z,98659.00
2018-08-24T18:34:33.394Z,98662.00
2018-08-24T18:36:37.014Z,98663.00
2018-08-24T18:38:40.534Z,98672.00
2018-08-24T18:41:16.821Z,98671.00
2018-08-24T18:43:20.415Z,98669.00
2018-08-24T18:45:26.904Z,98674.00
2018-08-24T18:47:30.462Z,98681.00
2018-08-24T18:49:34.404Z,98688.00
2018-08-24T18:51:39.274Z,98694.00
2018-08-24T18:53:42.806Z,98698.00
2018-08-24T18:55:49.016Z,98705.00
2018-08-24T18:57:53.301Z,98711.00
2018-08-24T18:59:57.194Z,98708.00
2018-08-24T19:02:04.997Z,98709.00
2018-08-24T19:04:11.464Z,98715.00
2018-08-24T19:06:21.777Z,98706.00
2018-08-24T19:08:25.431Z,98712.00
2018-08-24T19:10:31.624Z,98707.00
2018-08-24T19:12:35.495Z,98707.00
2018-08-24T19:14:39.359Z,98709.00
2018-08-24T19:16:43.637Z,98708.00
2018-08-24T19:18:52.477Z,98703.00
2018-08-24T19:21:03.763Z,98701.00
2018-08-24T19:23:12.782Z,98697.00
2018-08-24T19:25:17.567Z,98694.00
2018-08-24T19:27:21.891Z,98696.00
2018-08-24T19:29:33.426Z,98694.00
2018-08-24T19:31:37.397Z,98700.00
2018-08-24T19:33:41.157Z,98702.00
2018-08-24T19:35:47.003Z,98709.00
2018-08-24T19:37:50.937Z,98714.00
2018-08-24T19:40:00.197Z,98706.00
2018-08-24T19:42:11.457Z,98707.00
2018-08-24T19:44:16.464Z,98705.00
2018-08-24T19:46:23.472Z,98704.00
2018-08-24T19:48:32.416Z,98707.00
2018-08-24T19:50:39.011Z,98714.00
2018-08-24T19:52:43.188Z,98706.00
2018-08-24T19:54:47.245Z,98705.00
2018-08-24T19:56:51.585Z,98707.00
2018-08-24T19:59:00.346Z,98715.00
2018-08-24T20:01:04.414Z,98711.00
2018-08-24T20:03:12.428Z,98709.00
2018-08-24T20:05:16.367Z,98716.00
2018-08-24T20:07:26.242Z,98709.00
2018-08-24T20:09:36.802Z,98708.00
2018-08-24T20:11:40.754Z,98699.00
2018-08-24T20:13:44.948Z,98700.00
2018-08-24T20:15:53.768Z,98704.00
2018-08-24T20:17:57.563Z,98698.00
2018-08-24T20:20:01.818Z,98697.00
2018-08-24T20:22:09.981Z,98700.00
2018-08-24T20:24:20.232Z,98697.00
2018-08-24T20:26:36.014Z,98694.00
2018-08-24T20:28:42.352Z,98692.00
2018-08-24T20:30:47.526Z,98696.00
2018-08-24T20:32:53.847Z,98697.00
2018-08-24T20:35:00.023Z,98700.00
2018-08-24T20:37:05.607Z,98702.00
2018-08-24T20:39:12.228Z,98704.00
2018-08-24T20:41:19.968Z,98706.00
2018-08-24T20:43:26.989Z,98705.00
2018-08-24T20:45:35.825Z,98701.00
2018-08-24T20:47:40.398Z,98699.00
2018-08-24T20:49:49.563Z,98698.00
2018-08-24T20:51:57.011Z,98693.00
2018-08-24T20:54:04.585Z,98700.00
2018-08-24T20:56:10.506Z,98701.00
2018-08-24T20:58:18.123Z,98700.00
2018-08-24T21:00:24.474Z,98704.00
2018-08-24T21:02:31.433Z,98701.00
2018-08-24T21:04:35.935Z,98702.00
2018-08-24T21:06:40.046Z,98706.00
2018-08-24T21:08:43.927Z,98696.00
2018-08-24T21:10:53.219Z,98693.00
2018-08-24T21:13:01.809Z,98696.00
2018-08-24T21:15:08.126Z,98698.00
2018-08-24T21:17:12.292Z,98702.00
2018-08-24T21:19:17.042Z,98716.00
2018-08-24T21:21:21.142Z,98719.00
2018-08-24T21:23:26.396Z,98723.00
2018-08-24T21:25:34.443Z,98723.00
2018-08-24T21:27:42.966Z,98724.00
2018-08-24T21:29:47.723Z,98718.00
2018-08-24T21:31:55.766Z,98714.00
2018-08-24T21:34:02.118Z,98720.00
2018-08-24T21:36:08.464Z,98724.00
2018-08-24T21:38:12.514Z,98726.00
2018-08-24T21:40:18.807Z,98728.00
2018-08-24T21:42:23.703Z,98736.00
2018-08-24T21:44:27.633Z,98736.00
2018-08-24T21:46:31.884Z,98737.00
2018-08-24T21:48:43.017Z,98728.00
2018-08-24T21:50:46.856Z,98728.00
2018-08-24T21:53:06.962Z,98727.00
2018-08-24T21:55:11.717Z,98716.00
2018-08-24T21:57:15.598Z,98719.00
2018-08-24T21:59:20.864Z,98728.00
2018-08-24T22:01:24.972Z,98724.00
2018-08-24T22:03:28.756Z,98728.00
2018-08-24T22:05:32.848Z,98742.00
2018-08-24T22:07:36.489Z,98742.00
2018-08-24T22:09:40.207Z,98737.00
2018-08-24T22:11:44.645Z,98725.00
2018-08-24T22:13:48.565Z,98716.00
2018-08-24T22:15:52.313Z,98727.00
2018-08-24T22:18:02.646Z,98725.00
2018-08-24T22:20:09.778Z,98723.00
2018-08-24T22:22:15.630Z,98731.00
2018-08-24T22:24:19.562Z,98723.00
2018-08-24T22:26:23.468Z,98715.00
2018-08-24T22:28:27.335Z,98721.00
2018-08-24T22:30:36.202Z,98721.00
2018-08-24T22:32:40.217Z,98729.00
2018-08-24T22:34:46.260Z,98724.00
2018-08-24T22:36:51.988Z,98719.00
2018-08-24T22:38:56.075Z,98717.00
2018-08-24T22:41:02.098Z,98717.00
2018-08-24T22:43:13.948Z,98712.00
2018-08-24T22:45:19.305Z,98713.00
2018-08-24T22:47:22.972Z,98713.00
2018-08-24T22:49:26.729Z,98711.00
2018-08-24T22:51:30.947Z,98709.00
2018-08-24T22:53:34.754Z,98705.00
2018-08-24T22:55:38.816Z,98710.00
2018-08-24T22:57:42.708Z,98709.00
2018-08-24T22:59:46.628Z,98708.00
2018-08-24T23:01:50.625Z,98705.00
2018-08-24T23:03:54.278Z,98702.00
2018-08-24T23:05:58.044Z,98700.00
2018-08-24T23:08:01.936Z,98695.00
2018-08-24T23:10:08.907Z,98706.00
2018-08-24T23:12:15.418Z,98703.00
2018-08-24T23:14:21.316Z,98697.00
2018-08-24T23:16:25.998Z,98702.00
2018-08-24T23:18:30.192Z,98702.00
2018-08-24T23:20:34.212Z,98707.00
2018-08-24T23:22:38.325Z,98706.00
2018-08-24T23:24:43.284Z,98706.00
2018-08-24T23:26:47.191Z,98702.00
2018-08-24T23:28:50.701Z,98702.00
2018-08-24T23:30:54.293Z,98705.00
2018-08-24T23:32:58.324Z,98700.00
2018-08-24T23:35:02.670Z,98701.00
2018-08-24T23:37:07.062Z,98695.00
2018-08-24T23:39:14.327Z,98694.00
2018-08-24T23:41:20.976Z,98696.00
2018-08-24T23:43:28.345Z,98692.00
2018-08-24T23:45:32.328Z,98697.00
2018-08-24T23:47:35.884Z,98699.00
2018-08-24T23:49:39.618Z,98694.00
2018-08-24T23:51:43.939Z,98694.00
2018-08-24T23:53:47.661Z,98695.00
2018-08-24T23:55:51.228Z,98692.00
2018-08-24T23:58:00.011Z,98695.00
